createdAt,value
2022-11-28T00:01:21.375Z,101101.31
2022-11-28T00:03:48.105Z,101094.97
2022-11-28T00:06:15.081Z,101092.03
2022-11-28T00:08:41.654Z,101097.03
2022-11-28T00:11:10.637Z,101092.25
2022-11-28T00:13:37.698Z,101090.41
2022-11-28T00:16:06.099Z,101090.13
2022-11-28T00:18:32.778Z,101086.41
2022-11-28T00:21:05.042Z,101084.25
2022-11-28T00:23:33.051Z,101085.84
2022-11-28T00:26:05.131Z,101083.69
2022-11-28T00:28:31.781Z,101079.97
2022-11-28T00:30:58.206Z,101072.84
2022-11-28T00:33:24.642Z,101078.91
2022-11-28T00:35:51.308Z,101065.44
2022-11-28T00:38:17.629Z,101063.56
2022-11-28T00:40:43.924Z,101060.91
2022-11-28T00:43:11.569Z,101061.41
2022-11-28T00:45:37.929Z,101066.69
2022-11-28T00:48:05.008Z,101066.41
2022-11-28T00:50:31.615Z,101063.75
2022-11-28T00:52:58.165Z,101065.31
2022-11-28T00:55:24.510Z,101060.84
2022-11-28T00:57:51.602Z,101054.75
2022-11-28T01:00:18.366Z,101037.06
2022-11-28T01:02:44.802Z,101046.56
2022-11-28T01:05:11.310Z,101054.50
2022-11-28T01:07:42.182Z,101052.63
2022-11-28T01:10:11.001Z,101031.50
2022-11-28T01:12:37.370Z,101032.28
2022-11-28T01:15:06.309Z,101038.03
2022-11-28T01:17:32.602Z,101015.03
2022-11-28T01:19:59.097Z,101019.28
2022-11-28T01:22:25.415Z,101029.56
2022-11-28T01:24:51.848Z,101025.53
2022-11-28T01:27:18.333Z,101012.06
2022-11-28T01:29:44.665Z,101014.09
2022-11-28T01:32:10.961Z,101009.31
2022-11-28T01:34:37.289Z,101016.66
2022-11-28T01:37:03.626Z,101019.81
2022-11-28T01:39:33.299Z,101026.88
2022-11-28T01:41:59.799Z,101017.84
2022-11-28T01:44:26.185Z,101018.84
2022-11-28T01:46:57.113Z,101018.28
2022-11-28T01:49:35.945Z,101016.13
2022-11-28T01:52:13.589Z,101020.03
2022-11-28T01:54:43.812Z,101020.56
2022-11-28T01:57:16.718Z,101017.31
2022-11-28T01:59:58.554Z,101016.75
2022-11-28T02:02:32.120Z,101014.59
2022-11-28T02:04:59.150Z,101006.38
2022-11-28T02:07:26.328Z,101015.59
2022-11-28T02:09:52.970Z,101014.19
2022-11-28T02:12:29.126Z,101004.44
2022-11-28T02:15:27.790Z,101005.69
2022-11-28T02:18:00.368Z,100998.53
2022-11-28T02:20:32.464Z,100995.91
2022-11-28T02:23:16.974Z,100995.59
2022-11-28T02:25:55.522Z,100993.47
2022-11-28T02:28:24.934Z,100995.81
2022-11-28T02:31:26.489Z,100995.81
2022-11-28T02:33:57.735Z,100998.47
2022-11-28T02:36:47.340Z,100995.81
2022-11-28T02:39:33.215Z,100996.28
2022-11-28T02:42:14.493Z,100995.25
2022-11-28T02:44:47.547Z,101000.53
2022-11-28T02:47:33.899Z,100990.72
2022-11-28T02:50:19.099Z,100999.44
2022-11-28T02:52:57.517Z,100997.06
2022-11-28T02:55:24.542Z,100993.38
2022-11-28T02:57:53.749Z,100996.81
2022-11-28T03:00:37.733Z,100992.28
2022-11-28T03:03:18.051Z,100989.94
2022-11-28T03:06:18.697Z,100990.72
2022-11-28T03:09:11.274Z,100996.81
2022-11-28T03:11:46.617Z,100991.50
2022-11-28T03:14:20.107Z,100988.09
2022-11-28T03:17:04.303Z,100992.59
2022-11-28T03:19:37.466Z,100989.94
2022-11-28T03:22:20.104Z,100984.66
2022-11-28T03:25:13.418Z,100984.66
2022-11-28T03:27:56.782Z,100991.00
2022-11-28T03:30:32.431Z,100988.34
2022-11-28T03:33:02.661Z,100985.72
2022-11-28T03:35:32.986Z,100989.13
2022-11-28T03:38:08.846Z,100991.00
2022-11-28T03:40:42.789Z,100996.28
2022-11-28T03:43:14.753Z,100991.00
2022-11-28T03:45:46.269Z,100992.09
2022-11-28T03:48:19.664Z,100990.22
2022-11-28T03:50:52.942Z,100997.38
2022-11-28T03:53:53.525Z,100995.25
2022-11-28T03:56:26.337Z,100994.44
2022-11-28T03:58:55.817Z,100991.78
2022-11-28T04:01:32.053Z,100992.09
2022-11-28T04:04:12.189Z,101002.66
2022-11-28T04:06:55.992Z,100999.25
2022-11-28T04:09:53.686Z,100997.38
2022-11-28T04:12:29.798Z,100997.38
2022-11-28T04:15:02.491Z,100997.06
2022-11-28T04:17:42.707Z,100998.94
2022-11-28T04:20:16.602Z,100999.72
2022-11-28T04:22:51.985Z,100997.06
2022-11-28T04:25:21.742Z,101004.22
2022-11-28T04:27:51.987Z,101001.59
2022-11-28T04:30:18.635Z,101005.00
2022-11-28T04:32:51.670Z,101007.97
2022-11-28T04:35:28.605Z,101001.59
2022-11-28T04:37:56.066Z,100997.38
2022-11-28T04:40:24.671Z,100998.94
2022-11-28T04:42:58.260Z,101002.66
2022-11-28T04:45:48.901Z,100997.38
2022-11-28T04:48:15.375Z,101001.09
2022-11-28T04:51:04.910Z,100995.81
2022-11-28T04:53:33.582Z,101001.09
2022-11-28T04:56:05.207Z,101006.38
2022-11-28T04:58:39.363Z,101003.75
2022-11-28T05:01:10.034Z,101003.75
2022-11-28T05:03:42.612Z,101008.25
2022-11-28T05:06:09.607Z,101007.97
2022-11-28T05:08:36.041Z,101009.81
2022-11-28T05:11:02.378Z,101011.69
2022-11-28T05:13:28.894Z,101004.81
2022-11-28T05:15:55.851Z,101016.97
2022-11-28T05:18:22.231Z,101016.97
2022-11-28T05:20:51.732Z,101011.69
2022-11-28T05:23:18.086Z,101014.63
2022-11-28T05:25:44.389Z,101023.34
2022-11-28T05:28:10.730Z,101024.91
2022-11-28T05:30:37.038Z,101032.06
2022-11-28T05:33:05.213Z,101024.44
2022-11-28T05:35:31.641Z,101030.19
2022-11-28T05:37:57.927Z,101028.94
2022-11-28T05:40:24.291Z,101026.28
2022-11-28T05:42:50.611Z,101029.72
2022-11-28T05:45:16.926Z,101031.28
2022-11-28T05:47:43.237Z,101028.63
2022-11-28T05:50:10.056Z,101027.06
2022-11-28T05:52:36.491Z,101026.78
2022-11-28T05:55:02.797Z,101035.00
2022-11-28T05:57:29.985Z,101027.06
2022-11-28T05:59:56.767Z,101030.50
2022-11-28T06:02:23.132Z,101028.63
2022-11-28T06:04:49.655Z,101035.00
2022-11-28T06:07:16.070Z,101035.78
2022-11-28T06:09:42.627Z,101035.78
2022-11-28T06:12:09.396Z,101040.28
2022-11-28T06:14:36.176Z,101038.13
2022-11-28T06:17:03.238Z,101032.84
2022-11-28T06:19:29.622Z,101030.97
2022-11-28T06:21:56.596Z,101037.06
2022-11-28T06:24:23.018Z,101026.47
2022-11-28T06:26:49.351Z,101039.69
2022-11-28T06:29:15.690Z,101042.84
2022-11-28T06:31:42.032Z,101036.75
2022-11-28T06:34:12.239Z,101041.25
2022-11-28T06:36:39.529Z,101043.63
2022-11-28T06:39:05.914Z,101048.94
2022-11-28T06:41:32.266Z,101051.56
2022-11-28T06:43:58.662Z,101049.72
2022-11-28T06:46:25.021Z,101049.72
2022-11-28T06:48:52.251Z,101056.56
2022-11-28T06:51:19.476Z,101055.78
2022-11-28T06:53:45.815Z,101054.69
2022-11-28T06:56:15.119Z,101063.72
2022-11-28T06:58:41.922Z,101063.41
2022-11-28T07:01:14.534Z,101063.41
2022-11-28T07:03:41.310Z,101073.72
2022-11-28T07:06:08.357Z,101068.72
2022-11-28T07:08:35.101Z,101073.44
2022-11-28T07:11:13.610Z,101076.34
2022-11-28T07:13:41.051Z,101067.34
2022-11-28T07:16:10.428Z,101080.28
2022-11-28T07:18:36.970Z,101079.50
2022-11-28T07:21:03.606Z,101075.00
2022-11-28T07:23:29.950Z,101077.34
2022-11-28T07:26:01.070Z,101080.78
2022-11-28T07:28:30.708Z,101069.09
2022-11-28T07:31:06.252Z,101077.03
2022-11-28T07:33:34.141Z,101079.69
2022-11-28T07:36:02.939Z,101083.94
2022-11-28T07:38:29.250Z,101092.66
2022-11-28T07:41:01.902Z,101095.31
2022-11-28T07:43:28.328Z,101104.03
2022-11-28T07:46:01.131Z,101096.09
2022-11-28T07:48:28.244Z,101098.72
2022-11-28T07:50:56.713Z,101101.38
2022-11-28T07:53:26.117Z,101103.25
2022-11-28T07:55:54.626Z,101099.50
2022-11-28T07:58:23.467Z,101100.28
2022-11-28T08:00:51.263Z,101101.06
2022-11-28T08:03:19.238Z,101107.16
2022-11-28T08:05:50.094Z,101103.41
2022-11-28T08:08:18.051Z,101109.50
2022-11-28T08:10:45.439Z,101107.63
2022-11-28T08:13:12.967Z,101106.59
2022-11-28T08:15:40.391Z,101108.16
2022-11-28T08:18:07.655Z,101102.84
2022-11-28T08:20:37.204Z,101107.06
2022-11-28T08:23:04.138Z,101104.91
2022-11-28T08:25:30.471Z,101110.19
2022-11-28T08:27:56.850Z,101109.16
2022-11-28T08:30:23.325Z,101117.56
2022-11-28T08:32:50.486Z,101119.91
2022-11-28T08:35:17.113Z,101116.19
2022-11-28T08:37:43.497Z,101124.91
2022-11-28T08:40:10.381Z,101125.41
2022-11-28T08:42:36.915Z,101120.13
2022-11-28T08:45:03.943Z,101125.91
2022-11-28T08:47:30.684Z,101125.59
2022-11-28T08:49:57.054Z,101124.56
2022-11-28T08:52:24.037Z,101123.47
2022-11-28T08:54:50.465Z,101119.94
2022-11-28T08:57:16.768Z,101122.28
2022-11-28T08:59:43.372Z,101125.44
2022-11-28T09:02:12.420Z,101121.69
2022-11-28T09:04:38.726Z,101138.09
2022-11-28T09:07:06.051Z,101127.50
2022-11-28T09:09:35.468Z,101134.66
2022-11-28T09:12:02.097Z,101132.00
2022-11-28T09:14:28.409Z,101138.56
2022-11-28T09:16:54.871Z,101139.09
2022-11-28T09:19:21.455Z,101144.09
2022-11-28T09:21:47.754Z,101132.41
2022-11-28T09:24:14.134Z,101127.59
2022-11-28T09:26:40.616Z,101134.47
2022-11-28T09:29:07.038Z,101135.75
2022-11-28T09:31:33.440Z,101141.53
2022-11-28T09:33:59.871Z,101142.81
2022-11-28T09:36:28.080Z,101143.28
2022-11-28T09:38:54.492Z,101144.88
2022-11-28T09:41:54.854Z,101142.72
2022-11-28T09:44:52.972Z,101148.19
2022-11-28T09:47:28.750Z,101147.94
2022-11-28T09:50:10.603Z,101155.88
2022-11-28T09:52:48.278Z,101145.75
2022-11-28T09:55:38.207Z,101149.41
2022-11-28T09:58:16.110Z,101149.56
2022-11-28T10:00:54.291Z,101157.25
2022-11-28T10:04:01.396Z,101148.69
2022-11-28T10:06:40.545Z,101144.50
2022-11-28T10:09:23.448Z,101146.56
2022-11-28T10:12:27.606Z,101144.69
2022-11-28T10:15:09.760Z,101154.38
2022-11-28T10:18:09.121Z,101155.47
2022-11-28T10:20:43.226Z,101154.09
2022-11-28T10:23:44.209Z,101157.84
2022-11-28T10:26:22.559Z,101155.19
2022-11-28T10:28:53.600Z,101150.69
2022-11-28T10:31:39.350Z,101148.81
2022-11-28T10:34:16.467Z,101154.91
2022-11-28T10:37:20.129Z,101149.28
2022-11-28T10:39:47.293Z,101152.16
2022-11-28T10:42:22.954Z,101148.41
2022-11-28T10:45:11.614Z,101150.47
2022-11-28T10:47:54.290Z,101147.25
2022-11-28T10:50:36.865Z,101147.72
2022-11-28T10:53:36.968Z,101157.28
2022-11-28T10:56:26.512Z,101157.28
2022-11-28T10:59:33.101Z,101159.63
2022-11-28T11:02:01.101Z,101152.66
2022-11-28T11:04:32.832Z,101155.47
2022-11-28T11:07:19.513Z,101151.94
2022-11-28T11:09:48.386Z,101152.16
2022-11-28T11:12:21.636Z,101153.41
2022-11-28T11:14:49.058Z,101147.78
2022-11-28T11:17:36.153Z,101154.84
2022-11-28T11:20:25.269Z,101157.72
2022-11-28T11:23:10.397Z,101160.84
2022-11-28T11:25:37.133Z,101163.50
2022-11-28T11:28:04.941Z,101160.84
2022-11-28T11:30:36.333Z,101164.56
2022-11-28T11:33:06.076Z,101165.66
2022-11-28T11:35:44.836Z,101170.97
2022-11-28T11:38:20.329Z,101170.66
2022-11-28T11:40:48.673Z,101168.78
2022-11-28T11:43:47.444Z,101168.78
2022-11-28T11:46:16.112Z,101161.81
2022-11-28T11:48:45.903Z,101162.28
2022-11-28T11:51:28.748Z,101165.44
2022-11-28T11:54:02.947Z,101168.09
2022-11-28T11:56:37.775Z,101182.63
2022-11-28T11:59:13.808Z,101175.94
2022-11-28T12:01:46.425Z,101165.50
2022-11-28T12:04:44.669Z,101162.84
2022-11-28T12:07:38.908Z,101168.94
2022-11-28T12:10:10.824Z,101168.16
2022-11-28T12:12:37.972Z,101167.59
2022-11-28T12:15:11.875Z,101164.63
2022-11-28T12:18:10.058Z,101168.25
2022-11-28T12:20:49.831Z,101166.38
2022-11-28T12:23:34.718Z,101163.09
2022-11-28T12:26:38.598Z,101167.03
2022-11-28T12:29:31.450Z,101160.66
2022-11-28T12:32:19.183Z,101170.69
2022-11-28T12:35:22.731Z,101172.25
2022-11-28T12:38:12.185Z,101165.84
2022-11-28T12:41:11.400Z,101174.28
2022-11-28T12:43:57.819Z,101174.28
2022-11-28T12:46:42.926Z,101176.16
2022-11-28T12:49:26.222Z,101173.50
2022-11-28T12:52:16.779Z,101170.06
2022-11-28T12:55:01.749Z,101173.19
2022-11-28T12:57:37.916Z,101172.72
2022-11-28T13:00:24.901Z,101170.84
2022-11-28T13:03:24.810Z,101172.41
2022-11-28T13:06:09.781Z,101173.19
2022-11-28T13:08:48.731Z,101167.09
2022-11-28T13:11:30.191Z,101168.69
2022-11-28T13:14:25.240Z,101171.03
2022-11-28T13:16:54.648Z,101171.81
2022-11-28T13:19:29.823Z,101182.91
2022-11-28T13:22:02.926Z,101173.38
2022-11-28T13:24:33.730Z,101178.09
2022-11-28T13:27:09.372Z,101180.44
2022-11-28T13:29:54.082Z,101175.31
2022-11-28T13:32:42.186Z,101175.50
2022-11-28T13:35:13.840Z,101178.16
2022-11-28T13:40:42.726Z,101181.00
2022-11-28T13:43:18.279Z,101189.75
2022-11-28T13:45:46.741Z,101189.25
2022-11-28T13:49:13.391Z,101195.63
2022-11-28T13:51:31.460Z,101195.63
2022-11-28T13:54:17.543Z,101203.59
2022-11-28T13:57:03.718Z,101195.63
2022-11-28T13:59:30.806Z,101199.06
2022-11-28T14:02:00.985Z,101199.88
2022-11-28T14:04:33.637Z,101204.09
2022-11-28T14:07:08.568Z,101202.53
2022-11-28T14:10:25.018Z,101212.34
2022-11-28T14:13:31.652Z,101210.00
2022-11-28T14:16:29.831Z,101213.44
2022-11-28T14:19:17.298Z,101215.00
2022-11-28T14:22:09.066Z,101226.91
2022-11-28T14:24:49.148Z,101228.00
2022-11-28T14:27:34.716Z,101225.34
2022-11-28T14:30:02.075Z,101222.69
2022-11-28T14:32:43.130Z,101229.56
2022-11-28T14:35:39.555Z,101233.78
2022-11-28T14:38:46.839Z,101239.38
2022-11-28T14:41:16.309Z,101235.94
2022-11-28T14:43:50.261Z,101245.47
2022-11-28T14:46:26.512Z,101240.16
2022-11-28T14:49:01.309Z,101236.41
2022-11-28T14:52:15.921Z,101233.28
2022-11-28T14:54:44.274Z,101245.00
2022-11-28T14:57:32.505Z,101239.69
2022-11-28T15:00:06.606Z,101242.34
2022-11-28T15:02:48.953Z,101235.44
2022-11-28T15:05:34.950Z,101229.34
2022-11-28T15:08:33.220Z,101239.97
2022-11-28T15:11:24.632Z,101232.00
2022-11-28T15:14:21.134Z,101250.91
2022-11-28T15:16:54.877Z,101244.81
2022-11-28T15:19:26.554Z,101250.41
2022-11-28T15:21:54.281Z,101254.94
2022-11-28T15:24:33.245Z,101250.69
2022-11-28T15:27:08.547Z,101251.47
2022-11-28T15:29:36.826Z,101258.66
2022-11-28T15:32:04.361Z,101259.28
2022-11-28T15:34:35.462Z,101259.28
2022-11-28T15:37:17.507Z,101260.06
2022-11-28T15:39:47.512Z,101262.72
2022-11-28T15:42:23.817Z,101263.81
2022-11-28T15:44:57.726Z,101267.53
2022-11-28T15:47:24.919Z,101270.47
2022-11-28T15:50:09.691Z,101276.56
2022-11-28T15:52:36.025Z,101278.75
2022-11-28T15:55:02.897Z,101280.13
2022-11-28T15:57:33.470Z,101286.22
2022-11-28T16:00:02.527Z,101288.38
2022-11-28T16:02:33.896Z,101288.38
2022-11-28T16:05:06.355Z,101290.25
2022-11-28T16:07:37.835Z,101282.28
2022-11-28T16:10:17.117Z,101294.75
2022-11-28T16:12:44.250Z,101286.59
2022-11-28T16:15:22.207Z,101281.13
2022-11-28T16:17:49.151Z,101291.22
2022-11-28T16:20:26.899Z,101303.25
2022-11-28T16:23:03.662Z,101308.84
2022-11-28T16:25:32.709Z,101311.00
2022-11-28T16:27:59.642Z,101313.94
2022-11-28T16:30:37.083Z,101307.84
2022-11-28T16:33:42.834Z,101320.63
2022-11-28T16:36:16.862Z,101306.09
2022-11-28T16:38:44.528Z,101311.22
2022-11-28T16:41:21.176Z,101316.53
2022-11-28T16:43:52.123Z,101318.66
2022-11-28T16:46:24.339Z,101318.66
2022-11-28T16:48:57.924Z,101325.53
2022-11-28T16:51:35.946Z,101323.97
2022-11-28T16:54:26.669Z,101326.31
2022-11-28T16:56:57.885Z,101334.56
2022-11-28T16:59:24.972Z,101329.28
2022-11-28T17:01:55.297Z,101330.84
2022-11-28T17:04:30.385Z,101334.56
2022-11-28T17:06:59.300Z,101334.56
2022-11-28T17:09:27.667Z,101346.28
2022-11-28T17:12:03.084Z,101345.50
2022-11-28T17:14:29.679Z,101353.44
2022-11-28T17:16:56.062Z,101356.88
2022-11-28T17:19:22.480Z,101357.97
2022-11-28T17:21:52.017Z,101366.22
2022-11-28T17:24:27.209Z,101361.00
2022-11-28T17:26:54.338Z,101357.84
2022-11-28T17:29:21.855Z,101360.78
2022-11-28T17:31:48.984Z,101367.50
2022-11-28T17:34:21.069Z,101364.13
2022-11-28T17:36:50.038Z,101369.22
2022-11-28T17:39:17.383Z,101364.78
2022-11-28T17:41:45.416Z,101364.59
2022-11-28T17:44:25.372Z,101361.44
2022-11-28T17:46:55.484Z,101376.66
2022-11-28T17:49:22.489Z,101378.91
2022-11-28T17:51:49.809Z,101369.91
2022-11-28T17:54:18.308Z,101376.09
2022-11-28T17:56:46.494Z,101382.75
2022-11-28T17:59:15.938Z,101386.75
2022-11-28T18:01:43.008Z,101385.00
2022-11-28T18:04:09.478Z,101394.66
2022-11-28T18:06:36.253Z,101394.59
2022-11-28T18:09:11.385Z,101392.59
2022-11-28T18:11:39.191Z,101387.88
2022-11-28T18:14:05.655Z,101386.31
2022-11-28T18:16:32.102Z,101395.31
2022-11-28T18:18:58.482Z,101396.69
2022-11-28T18:21:26.626Z,101393.53
2022-11-28T18:23:54.397Z,101396.75
2022-11-28T18:26:23.823Z,101400.25
2022-11-28T18:28:50.920Z,101404.84
2022-11-28T18:31:24.656Z,101404.59
2022-11-28T18:33:55.124Z,101401.53
2022-11-28T18:36:26.186Z,101401.88
2022-11-28T18:39:01.681Z,101396.38
2022-11-28T18:41:29.366Z,101396.16
2022-11-28T18:44:07.167Z,101406.03
2022-11-28T18:46:34.491Z,101404.28
2022-11-28T18:49:03.238Z,101408.03
2022-11-28T18:51:31.858Z,101411.25
2022-11-28T18:53:59.129Z,101413.38
2022-11-28T18:56:26.404Z,101425.03
2022-11-28T18:58:53.977Z,101415.31
2022-11-28T19:01:25.272Z,101426.44
2022-11-28T19:03:53.962Z,101420.34
2022-11-28T19:06:20.907Z,101426.22
2022-11-28T19:08:48.574Z,101423.28
2022-11-28T19:11:16.762Z,101425.34
2022-11-28T19:13:45.175Z,101427.22
2022-11-28T19:16:18.328Z,101433.81
2022-11-28T19:18:45.250Z,101434.59
2022-11-28T19:21:18.203Z,101430.09
2022-11-28T19:23:44.729Z,101429.53
2022-11-28T19:26:13.482Z,101438.75
2022-11-28T19:28:41.161Z,101434.25
2022-11-28T19:31:16.494Z,101439.00
2022-11-28T19:33:43.902Z,101444.00
2022-11-28T19:36:12.836Z,101440.00
2022-11-28T19:38:40.754Z,101439.72
2022-11-28T19:41:12.622Z,101438.66
2022-11-28T19:43:41.306Z,101437.09
2022-11-28T19:46:09.893Z,101437.59
2022-11-28T19:48:39.002Z,101438.31
2022-11-28T19:51:06.623Z,101450.19
2022-11-28T19:53:35.027Z,101438.25
2022-11-28T19:56:06.864Z,101442.97
2022-11-28T19:58:35.145Z,101452.22
2022-11-28T20:01:12.689Z,101449.00
2022-11-28T20:03:41.063Z,101460.91
2022-11-28T20:06:12.773Z,101465.91
2022-11-28T20:08:39.739Z,101468.25
2022-11-28T20:11:13.911Z,101469.84
2022-11-28T20:13:41.751Z,101462.41
2022-11-28T20:16:09.700Z,101472.94
2022-11-28T20:18:37.962Z,101468.38
2022-11-28T20:21:11.114Z,101464.09
2022-11-28T20:23:45.386Z,101461.16
2022-11-28T20:26:15.626Z,101459.78
2022-11-28T20:28:46.833Z,101469.81
2022-11-28T20:31:27.027Z,101472.97
2022-11-28T20:33:54.300Z,101474.53
2022-11-28T20:36:22.873Z,101481.44
2022-11-28T20:38:49.989Z,101480.34
2022-11-28T20:41:18.650Z,101489.88
2022-11-28T20:43:45.209Z,101486.94
2022-11-28T20:46:15.629Z,101484.00
2022-11-28T20:48:42.479Z,101488.22
2022-11-28T20:51:16.930Z,101488.72
2022-11-28T20:53:45.137Z,101481.56
2022-11-28T20:56:14.706Z,101491.09
2022-11-28T20:58:41.172Z,101492.69
2022-11-28T21:01:07.861Z,101495.03
2022-11-28T21:03:34.464Z,101492.09
2022-11-28T21:06:01.464Z,101499.75
2022-11-28T21:08:31.206Z,101500.81
2022-11-28T21:10:57.531Z,101497.41
2022-11-28T21:13:23.975Z,101498.97
2022-11-28T21:15:50.492Z,101501.63
2022-11-28T21:18:17.012Z,101506.66
2022-11-28T21:20:45.414Z,101505.84
2022-11-28T21:23:13.497Z,101506.66
2022-11-28T21:25:41.891Z,101511.94
2022-11-28T21:28:09.610Z,101513.50
2022-11-28T21:30:41.452Z,101511.94
2022-11-28T21:33:07.829Z,101516.16
2022-11-28T21:35:34.720Z,101517.25
2022-11-28T21:38:01.033Z,101520.69
2022-11-28T21:40:27.328Z,101522.53
2022-11-28T21:42:53.620Z,101525.97
2022-11-28T21:45:21.238Z,101526.47
2022-11-28T21:47:47.533Z,101523.03
2022-11-28T21:50:15.849Z,101524.59
2022-11-28T21:52:46.050Z,101523.81
2022-11-28T21:55:12.397Z,101522.75
2022-11-28T21:57:38.742Z,101520.88
2022-11-28T22:00:05.865Z,101525.91
2022-11-28T22:02:32.247Z,101534.91
2022-11-28T22:04:59.881Z,101538.34
2022-11-28T22:07:26.289Z,101535.69
2022-11-28T22:09:52.618Z,101530.41
2022-11-28T22:12:18.925Z,101533.03
2022-11-28T22:14:46.121Z,101534.66
2022-11-28T22:17:17.299Z,101541.00
2022-11-28T22:19:45.176Z,101546.03
2022-11-28T22:22:13.760Z,101547.59
2022-11-28T22:24:44.775Z,101541.50
2022-11-28T22:27:11.209Z,101539.94
2022-11-28T22:29:37.565Z,101543.38
2022-11-28T22:32:04.297Z,101544.16
2022-11-28T22:34:33.510Z,101548.69
2022-11-28T22:37:03.107Z,101543.88
2022-11-28T22:39:29.809Z,101548.09
2022-11-28T22:41:56.195Z,101552.59
2022-11-28T22:44:22.777Z,101549.66
2022-11-28T22:46:51.143Z,101558.41
2022-11-28T22:49:17.637Z,101563.72
2022-11-28T22:51:43.980Z,101565.28
2022-11-28T22:54:12.417Z,101568.72
2022-11-28T22:56:40.466Z,101566.06
2022-11-28T22:59:11.610Z,101565.28
2022-11-28T23:01:39.622Z,101566.38
2022-11-28T23:04:06.174Z,101563.72
2022-11-28T23:06:34.723Z,101565.28
2022-11-28T23:09:04.698Z,101566.38
2022-11-28T23:11:33.061Z,101571.66
2022-11-28T23:14:00.497Z,101576.97
2022-11-28T23:16:36.729Z,101563.44
2022-11-28T23:19:10.237Z,101570.31
2022-11-28T23:21:40.281Z,101572.16
2022-11-28T23:24:07.543Z,101574.81
2022-11-28T23:26:34.717Z,101574.03
2022-11-28T23:29:03.315Z,101570.31
2022-11-28T23:31:31.456Z,101571.88
2022-11-28T23:33:58.529Z,101579.03
2022-11-28T23:36:27.648Z,101582.47
2022-11-28T23:38:59.641Z,101576.38
2022-11-28T23:41:27.051Z,101574.81
2022-11-28T23:43:53.367Z,101575.31
2022-11-28T23:46:21.222Z,101578.75
2022-11-28T23:48:47.994Z,101581.13
2022-11-28T23:51:16.587Z,101581.13
2022-11-28T23:53:43.356Z,101576.09
2022-11-28T23:56:13.917Z,101584.56
2022-11-28T23:58:41.053Z,101580.34
